createdAt,value
2019-04-23T00:01:07.543Z,15.40
2019-04-23T00:03:30.221Z,15.30
2019-04-23T00:06:12.089Z,15.30
2019-04-23T00:08:36.238Z,15.30
2019-04-23T00:11:06.038Z,15.30
2019-04-23T00:13:39.354Z,15.20
2019-04-23T00:16:18.689Z,15.20
2019-04-23T00:18:46.529Z,15.20
2019-04-23T00:21:26.679Z,15.10
2019-04-23T00:24:03.009Z,15.10
2019-04-23T00:29:00.533Z,15.00
2019-04-23T00:31:29.560Z,14.90
2019-04-23T00:33:57.265Z,14.90
2019-04-23T00:38:50.057Z,14.80
2019-04-23T00:41:30.872Z,14.80
2019-04-23T00:46:31.503Z,14.70
2019-04-23T00:51:33.079Z,14.60
2019-04-23T00:54:01.507Z,14.50
2019-04-23T00:56:42.192Z,14.50
2019-04-23T00:59:00.714Z,14.40
2019-04-23T01:01:36.833Z,14.40
2019-04-23T01:04:02.340Z,14.30
2019-04-23T01:06:28.826Z,14.30
2019-04-23T01:09:03.853Z,14.20
2019-04-23T01:11:32.342Z,14.20
2019-04-23T01:14:01.018Z,14.10
2019-04-23T01:16:28.738Z,14.10
2019-04-23T01:19:24.835Z,14.00
2019-04-23T01:21:32.642Z,14.00
2019-04-23T01:24:21.944Z,13.90
2019-04-23T01:30:05.056Z,13.80
2019-04-23T01:32:35.042Z,13.70
2019-04-23T01:35:15.343Z,13.70
2019-04-23T01:37:39.764Z,13.60
2019-04-23T01:40:04.284Z,13.60
2019-04-23T01:42:43.938Z,13.50
2019-04-23T01:45:11.752Z,13.50
2019-04-23T01:47:38.826Z,13.40
2019-04-23T01:50:08.237Z,13.30
2019-04-23T01:52:43.043Z,13.30
2019-04-23T01:55:09.996Z,13.20
2019-04-23T01:57:37.725Z,13.20
2019-04-23T02:00:14.077Z,13.10
2019-04-23T02:02:43.096Z,13.10
2019-04-23T02:05:14.155Z,13.10
2019-04-23T02:07:44.348Z,13.00
2019-04-23T02:10:14.603Z,13.00
2019-04-23T02:12:46.450Z,12.90
2019-04-23T02:15:13.769Z,12.90
2019-04-23T02:17:38.005Z,12.90
2019-04-23T02:20:14.155Z,12.80
2019-04-23T02:22:58.668Z,12.80
2019-04-23T02:25:40.829Z,12.70
2019-04-23T02:30:54.942Z,12.60
2019-04-23T02:40:46.688Z,12.50
2019-04-23T02:45:52.100Z,12.40
2019-04-23T02:54:00.615Z,12.30
2019-04-23T02:58:19.097Z,12.20
2019-04-23T03:08:20.312Z,12.10
2019-04-23T03:10:51.529Z,12.10
2019-04-23T03:13:28.749Z,12.00
2019-04-23T03:16:00.865Z,12.00
2019-04-23T03:23:46.698Z,11.90
2019-04-23T03:26:19.969Z,11.80
2019-04-23T03:28:43.687Z,11.80
2019-04-23T03:43:41.243Z,11.70
2019-04-23T03:51:11.301Z,11.50
2019-04-23T03:54:08.548Z,11.50
2019-04-23T03:56:41.594Z,11.50
2019-04-23T03:58:42.596Z,11.40
2019-04-23T04:01:27.936Z,11.40
2019-04-23T04:04:14.727Z,11.40
2019-04-23T04:08:56.777Z,11.30
2019-04-23T04:13:55.424Z,11.30
2019-04-23T04:23:53.509Z,11.20
2019-04-23T04:26:21.109Z,11.20
2019-04-23T04:31:16.187Z,11.10
2019-04-23T04:34:03.137Z,11.10
2019-04-23T04:38:46.731Z,11.10
2019-04-23T04:48:50.679Z,11.00
2019-04-23T04:51:32.743Z,11.00
2019-04-23T05:01:25.858Z,11.00
2019-04-23T05:03:45.880Z,11.00
2019-04-23T05:08:54.659Z,11.10
2019-04-23T05:13:52.448Z,11.10
2019-04-23T05:16:24.291Z,11.10
2019-04-23T05:18:53.726Z,11.10
2019-04-23T05:21:21.419Z,11.20
2019-04-23T05:41:30.411Z,11.60
2019-04-23T05:43:55.833Z,11.70
2019-04-23T05:46:29.851Z,11.80
2019-04-23T05:48:53.216Z,11.80
2019-04-23T05:51:33.513Z,11.90
2019-04-23T05:53:52.575Z,12.00
2019-04-23T05:56:20.877Z,12.00
2019-04-23T05:58:58.144Z,12.20
2019-04-23T06:04:03.925Z,12.30
2019-04-23T06:06:38.018Z,12.40
2019-04-23T06:09:03.454Z,12.50
2019-04-23T06:11:36.987Z,12.50
2019-04-23T06:16:36.159Z,12.70
2019-04-23T06:19:02.705Z,12.80
2019-04-23T06:21:34.701Z,12.90
2019-04-23T06:26:47.489Z,13.00
2019-04-23T06:29:05.351Z,13.10
2019-04-23T06:31:32.553Z,13.20
2019-04-23T06:34:03.812Z,13.40
2019-04-23T06:36:35.616Z,13.40
2019-04-23T06:38:55.811Z,13.60
2019-04-23T06:41:37.531Z,13.70
2019-04-23T06:44:18.094Z,13.80
2019-04-23T06:46:39.457Z,13.90
2019-04-23T06:49:02.403Z,14.00
2019-04-23T06:51:37.809Z,14.10
2019-04-23T06:54:04.891Z,14.20
2019-04-23T06:59:07.090Z,14.40
2019-04-23T07:01:35.839Z,14.50
2019-04-23T07:04:05.150Z,14.70
2019-04-23T07:06:56.775Z,14.80
2019-04-23T07:11:33.829Z,15.00
2019-04-23T07:14:12.416Z,15.10
2019-04-23T07:16:32.891Z,15.30
2019-04-23T07:19:09.501Z,15.40
2019-04-23T07:21:50.839Z,15.50
2019-04-23T07:24:08.513Z,15.60
2019-04-23T07:29:31.362Z,15.90
2019-04-23T07:36:44.681Z,16.80
2019-04-23T07:41:56.798Z,17.30
2019-04-23T07:44:42.569Z,17.50
2019-04-23T07:49:49.336Z,18.40
2019-04-23T07:52:21.812Z,19.00
2019-04-23T07:54:56.761Z,19.40
2019-04-23T07:57:19.881Z,19.60
2019-04-23T07:59:59.192Z,19.80
2019-04-23T08:02:19.396Z,19.80
2019-04-23T08:05:00.849Z,19.90
2019-04-23T08:07:19.837Z,19.80
2019-04-23T08:09:53.625Z,19.80
2019-04-23T08:14:55.304Z,19.70
2019-04-23T08:17:20.929Z,19.60
2019-04-23T08:19:56.151Z,19.60
2019-04-23T08:22:36.952Z,19.60
2019-04-23T08:27:22.486Z,19.80
2019-04-23T08:29:49.420Z,19.90
2019-04-23T08:35:06.396Z,20.00
2019-04-23T08:39:57.106Z,19.90
2019-04-23T08:48:12.397Z,20.10
2019-04-23T08:50:32.702Z,20.30
2019-04-23T08:53:06.984Z,20.40
2019-04-23T08:55:38.438Z,20.50
2019-04-23T08:58:01.547Z,20.60
2019-04-23T09:00:35.467Z,20.60
2019-04-23T09:03:04.974Z,20.70
2019-04-23T09:08:07.144Z,20.90
2019-04-23T09:10:36.030Z,21.00
2019-04-23T09:13:32.171Z,21.10
2019-04-23T09:15:38.933Z,21.20
2019-04-23T09:18:10.882Z,21.30
2019-04-23T09:20:30.655Z,21.40
2019-04-23T09:23:04.155Z,21.60
2019-04-23T09:25:46.502Z,21.70
2019-04-23T09:28:08.542Z,21.70
2019-04-23T09:30:42.926Z,21.80
2019-04-23T09:33:13.678Z,21.80
2019-04-23T09:35:53.998Z,21.90
2019-04-23T09:38:25.192Z,22.00
2019-04-23T09:44:02.757Z,22.20
2019-04-23T09:46:36.165Z,22.20
2019-04-23T09:51:36.707Z,22.40
2019-04-23T09:54:09.531Z,22.60
2019-04-23T09:59:15.705Z,22.90
2019-04-23T10:01:32.897Z,23.00
2019-04-23T10:03:57.711Z,23.20
2019-04-23T10:06:20.297Z,23.40
2019-04-23T10:08:49.465Z,23.50
2019-04-23T10:11:13.823Z,23.60
2019-04-23T10:13:42.950Z,23.60
2019-04-23T10:16:15.347Z,23.80
2019-04-23T10:18:41.860Z,23.90
2019-04-23T10:21:11.194Z,24.20
2019-04-23T10:23:41.268Z,24.30
2019-04-23T10:26:10.131Z,24.50
2019-04-23T10:28:42.065Z,24.60
2019-04-23T10:31:12.507Z,24.70
2019-04-23T10:33:42.096Z,24.80
2019-04-23T10:36:13.664Z,25.10
2019-04-23T10:38:49.426Z,25.40
2019-04-23T10:41:14.156Z,25.70
2019-04-23T10:43:46.751Z,25.90
2019-04-23T10:46:53.177Z,26.20
2019-04-23T10:52:20.192Z,26.60
2019-04-23T10:54:41.431Z,26.70
2019-04-23T10:57:13.100Z,26.70
2019-04-23T11:04:54.209Z,26.70
2019-04-23T11:07:28.495Z,26.60
2019-04-23T11:09:56.974Z,26.60
2019-04-23T11:17:45.962Z,26.60
2019-04-23T11:25:26.596Z,26.90
2019-04-23T11:30:31.341Z,27.10
2019-04-23T11:35:23.826Z,27.20
2019-04-23T11:38:23.608Z,27.30
2019-04-23T11:40:23.299Z,27.30
2019-04-23T11:42:58.004Z,27.40
2019-04-23T11:45:50.300Z,27.50
2019-04-23T11:50:38.025Z,27.60
2019-04-23T11:53:06.769Z,27.50
2019-04-23T11:55:32.770Z,27.30
2019-04-23T11:58:04.908Z,27.10
2019-04-23T12:00:38.574Z,27.00
2019-04-23T12:03:26.643Z,26.90
2019-04-23T12:06:09.473Z,26.80
2019-04-23T12:08:28.235Z,26.80
2019-04-23T12:11:00.261Z,26.80
2019-04-23T12:13:28.544Z,26.70
2019-04-23T12:18:28.660Z,26.90
2019-04-23T12:21:04.758Z,27.00
2019-04-23T12:23:41.065Z,27.10
2019-04-23T12:26:13.528Z,27.20
2019-04-23T12:28:40.568Z,27.30
2019-04-23T12:31:09.298Z,27.40
2019-04-23T12:36:35.534Z,27.80
2019-04-23T12:39:01.036Z,27.90
2019-04-23T12:41:27.113Z,28.00
2019-04-23T12:43:53.247Z,28.10
2019-04-23T12:46:29.949Z,28.20
2019-04-23T12:49:21.686Z,28.30
2019-04-23T12:51:34.572Z,28.40
2019-04-23T12:53:48.477Z,28.30
2019-04-23T12:56:31.466Z,28.30
2019-04-23T12:58:44.990Z,28.30
2019-04-23T13:01:22.668Z,28.50
2019-04-23T13:03:45.959Z,28.70
2019-04-23T13:06:20.670Z,28.90
2019-04-23T13:08:52.316Z,29.10
2019-04-23T13:11:33.336Z,29.10
2019-04-23T13:13:58.677Z,29.20
2019-04-23T13:19:03.578Z,29.40
2019-04-23T13:23:55.597Z,29.50
2019-04-23T13:26:30.905Z,29.50
2019-04-23T13:29:06.234Z,29.50
2019-04-23T13:31:30.051Z,29.60
2019-04-23T13:33:58.475Z,29.40
2019-04-23T13:36:36.245Z,29.30
2019-04-23T13:39:02.075Z,29.10
2019-04-23T13:41:33.489Z,29.00
2019-04-23T13:43:54.853Z,28.90
2019-04-23T13:46:35.950Z,28.80
2019-04-23T13:49:03.890Z,28.80
2019-04-23T13:51:31.453Z,28.60
2019-04-23T13:54:15.832Z,28.40
2019-04-23T13:56:49.262Z,28.30
2019-04-23T13:59:31.337Z,28.30
2019-04-23T14:01:54.513Z,28.30
2019-04-23T14:04:30.827Z,28.30
2019-04-23T14:06:41.915Z,28.20
2019-04-23T14:09:20.071Z,28.20
2019-04-23T14:11:42.505Z,28.10
2019-04-23T14:14:26.662Z,28.10
2019-04-23T14:17:04.927Z,28.10
2019-04-23T14:19:16.524Z,28.10
2019-04-23T14:21:52.341Z,28.20
2019-04-23T14:24:46.249Z,28.10
2019-04-23T14:26:46.265Z,28.10
2019-04-23T14:29:21.683Z,28.10
2019-04-23T14:31:54.102Z,28.20
2019-04-23T14:34:17.810Z,28.20
2019-04-23T14:36:57.570Z,28.30
2019-04-23T14:39:24.065Z,28.10
2019-04-23T14:42:03.792Z,28.00
2019-04-23T14:44:19.003Z,27.90
2019-04-23T14:47:03.503Z,27.80
2019-04-23T14:49:26.109Z,27.70
2019-04-23T14:52:00.156Z,27.70
2019-04-23T14:57:09.882Z,27.40
2019-04-23T14:59:32.547Z,27.40
2019-04-23T15:02:05.284Z,27.20
2019-04-23T15:04:39.796Z,26.90
2019-04-23T15:07:10.945Z,26.70
2019-04-23T15:14:46.513Z,26.50
2019-04-23T15:17:13.068Z,26.40
2019-04-23T15:19:59.950Z,26.40
2019-04-23T15:22:16.781Z,26.40
2019-04-23T15:27:38.566Z,26.30
2019-04-23T15:27:59.322Z,26.30
2019-04-23T15:29:33.713Z,26.20
2019-04-23T15:32:35.019Z,26.20
2019-04-23T15:34:37.664Z,26.20
2019-04-23T15:37:45.155Z,26.20
2019-04-23T15:39:49.545Z,26.20
2019-04-23T15:44:49.003Z,26.10
2019-04-23T15:47:19.944Z,26.00
2019-04-23T15:49:51.477Z,26.00
2019-04-23T15:54:50.906Z,25.90
2019-04-23T15:57:18.129Z,25.90
2019-04-23T15:59:51.983Z,25.90
2019-04-23T16:01:49.613Z,25.90
2019-04-23T16:04:20.096Z,25.80
2019-04-23T16:06:49.392Z,25.70
2019-04-23T16:09:49.337Z,25.70
2019-04-23T16:12:09.746Z,25.70
2019-04-23T16:14:58.508Z,25.70
2019-04-23T16:17:24.475Z,25.70
2019-04-23T16:20:00.169Z,25.60
2019-04-23T16:22:20.400Z,25.60
2019-04-23T16:25:03.555Z,25.50
2019-04-23T16:27:17.003Z,25.50
2019-04-23T16:30:05.164Z,25.50
2019-04-23T16:32:55.982Z,25.50
2019-04-23T16:35:14.152Z,25.50
2019-04-23T16:37:39.128Z,25.50
2019-04-23T16:40:10.395Z,25.40
2019-04-23T16:45:12.483Z,25.20
2019-04-23T16:50:14.252Z,25.00
2019-04-23T16:52:32.371Z,24.90
2019-04-23T16:55:07.046Z,24.90
2019-04-23T16:57:43.459Z,24.80
2019-04-23T17:02:38.722Z,24.80
2019-04-23T17:05:16.492Z,24.70
2019-04-23T17:07:37.667Z,24.70
2019-04-23T17:10:19.463Z,24.60
2019-04-23T17:12:35.576Z,24.60
2019-04-23T17:15:09.392Z,24.50
2019-04-23T17:17:33.980Z,24.50
2019-04-23T17:20:10.800Z,24.50
2019-04-23T17:22:39.287Z,24.40
2019-04-23T17:25:15.632Z,24.40
2019-04-23T17:27:41.636Z,24.30
2019-04-23T17:30:12.042Z,24.20
2019-04-23T17:32:44.852Z,24.20
2019-04-23T17:35:27.425Z,24.10
2019-04-23T17:37:55.893Z,24.10
2019-04-23T17:42:56.962Z,23.90
2019-04-23T17:45:32.369Z,23.80
2019-04-23T17:48:11.476Z,23.80
2019-04-23T17:56:06.295Z,23.50
2019-04-23T17:58:24.767Z,23.50
2019-04-23T18:01:07.223Z,23.40
2019-04-23T18:03:23.747Z,23.30
2019-04-23T18:06:11.927Z,23.20
2019-04-23T18:08:45.827Z,23.10
2019-04-23T18:13:22.448Z,22.90
2019-04-23T18:16:04.051Z,22.80
2019-04-23T18:18:33.446Z,22.70
2019-04-23T18:21:03.453Z,22.60
2019-04-23T18:23:32.367Z,22.50
2019-04-23T18:26:04.942Z,22.40
2019-04-23T18:28:42.315Z,22.30
2019-04-23T18:31:13.150Z,22.10
2019-04-23T18:36:08.141Z,21.90
2019-04-23T18:38:39.391Z,21.80
2019-04-23T18:43:59.228Z,21.70
2019-04-23T18:46:16.353Z,21.60
2019-04-23T18:51:05.252Z,21.40
2019-04-23T18:53:48.172Z,21.30
2019-04-23T18:59:00.418Z,21.20
2019-04-23T19:01:25.370Z,21.10
2019-04-23T19:03:55.561Z,21.00
2019-04-23T19:09:12.179Z,20.80
2019-04-23T19:11:53.131Z,20.70
2019-04-23T19:14:23.729Z,20.70
2019-04-23T19:16:54.975Z,20.60
2019-04-23T19:19:25.007Z,20.50
2019-04-23T19:22:07.030Z,20.40
2019-04-23T19:24:15.819Z,20.40
2019-04-23T19:27:08.352Z,20.30
2019-04-23T19:29:21.358Z,20.20
2019-04-23T19:34:34.045Z,20.10
2019-04-23T19:36:59.062Z,20.00
2019-04-23T19:39:27.870Z,19.90
2019-04-23T19:44:24.260Z,19.80
2019-04-23T19:47:06.311Z,19.70
2019-04-23T19:49:28.891Z,19.60
2019-04-23T19:51:53.434Z,19.60
2019-04-23T19:59:35.952Z,19.40
2019-04-23T20:04:28.855Z,19.20
2019-04-23T20:07:12.276Z,19.20
2019-04-23T20:11:54.801Z,19.10
2019-04-23T20:14:26.267Z,19.00
2019-04-23T20:17:21.322Z,19.00
2019-04-23T20:19:31.664Z,18.90
2019-04-23T20:22:00.247Z,18.80
2019-04-23T20:31:44.984Z,18.70
2019-04-23T20:36:57.965Z,18.50
2019-04-23T20:39:41.971Z,18.40
2019-04-23T20:49:42.957Z,18.20
2019-04-23T20:52:07.265Z,18.20
2019-04-23T20:54:51.008Z,18.10
2019-04-23T21:00:01.550Z,18.00
2019-04-23T21:02:54.749Z,18.00
2019-04-23T21:07:52.610Z,17.80
2019-04-23T21:10:18.153Z,17.80
2019-04-23T21:12:51.189Z,17.80
2019-04-23T21:15:16.033Z,17.70
2019-04-23T21:20:17.809Z,17.60
2019-04-23T21:22:38.199Z,17.60
2019-04-23T21:25:00.093Z,17.60
2019-04-23T21:30:48.774Z,17.40
2019-04-23T21:33:05.376Z,17.40
2019-04-23T21:36:10.856Z,17.30
2019-04-23T21:38:47.526Z,17.30
2019-04-23T21:41:29.937Z,17.30
2019-04-23T21:46:30.696Z,17.10
2019-04-23T21:53:56.903Z,17.00
2019-04-23T22:01:32.317Z,16.90
2019-04-23T22:04:08.895Z,16.90
2019-04-23T22:16:35.629Z,16.70
2019-04-23T22:19:10.671Z,16.60
2019-04-23T22:29:16.532Z,16.40
2019-04-23T22:36:29.202Z,16.30
2019-04-23T22:39:03.470Z,16.20
2019-04-23T22:41:35.817Z,16.20
2019-04-23T22:46:48.157Z,16.10
2019-04-23T22:51:46.354Z,16.00
2019-04-23T22:54:11.808Z,16.00
2019-04-23T22:56:48.219Z,15.90
2019-04-23T22:59:18.264Z,15.90
2019-04-23T23:01:51.784Z,15.90
2019-04-23T23:04:23.695Z,15.90
2019-04-23T23:09:33.422Z,15.80
2019-04-23T23:11:49.767Z,15.80
2019-04-23T23:16:45.107Z,15.70
2019-04-23T23:21:58.160Z,15.70
2019-04-23T23:24:15.418Z,15.70
2019-04-23T23:26:50.388Z,15.70
2019-04-23T23:29:16.041Z,15.70
2019-04-23T23:31:54.227Z,15.70
2019-04-23T23:34:15.488Z,15.70
2019-04-23T23:36:54.331Z,15.70
2019-04-23T23:41:52.388Z,15.70
2019-04-23T23:44:35.180Z,15.70
2019-04-23T23:46:56.307Z,15.80
2019-04-23T23:49:18.867Z,15.80
2019-04-23T23:54:15.165Z,15.80
2019-04-23T23:56:58.762Z,15.80
2019-04-23T23:59:21.132Z,15.80
